sensor_id;sensor_type;location;lat;lon;timestamp;pressure;altitude;pressure_sealevel;temperature;humidity
46291;BME280;32023;44.444;26.006;2024-03-29T00:01:39;99898.53;;;13.29;59.32
46291;BME280;32023;44.444;26.006;2024-03-29T00:04:08;99898.22;;;13.31;59.43
46291;BME280;32023;44.444;26.006;2024-03-29T00:06:34;99897.94;;;13.32;59.48
46291;BME280;32023;44.444;26.006;2024-03-29T00:09:03;99902.34;;;13.33;59.32
46291;BME280;32023;44.444;26.006;2024-03-29T00:11:29;99899.81;;;13.37;59.26
46291;BME280;32023;44.444;26.006;2024-03-29T00:13:57;99907.31;;;13.36;59.08
46291;BME280;32023;44.444;26.006;2024-03-29T00:16:24;99912.88;;;13.31;59.33
46291;BME280;32023;44.444;26.006;2024-03-29T00:18:53;99913.47;;;13.28;59.42
46291;BME280;32023;44.444;26.006;2024-03-29T00:21:19;99917.94;;;13.19;59.58
46291;BME280;32023;44.444;26.006;2024-03-29T00:24:03;99918.00;;;13.09;59.83
46291;BME280;32023;44.444;26.006;2024-03-29T00:26:32;99928.59;;;12.92;60.62
46291;BME280;32023;44.444;26.006;2024-03-29T00:28:59;99932.25;;;12.82;60.97
46291;BME280;32023;44.444;26.006;2024-03-29T00:31:31;99949.44;;;12.69;61.51
46291;BME280;32023;44.444;26.006;2024-03-29T00:33:58;99953.13;;;12.54;62.10
46291;BME280;32023;44.444;26.006;2024-03-29T00:36:24;99955.88;;;12.54;62.11
46291;BME280;32023;44.444;26.006;2024-03-29T00:38:50;99945.97;;;12.53;62.28
46291;BME280;32023;44.444;26.006;2024-03-29T00:41:25;99958.94;;;12.48;62.23
46291;BME280;32023;44.444;26.006;2024-03-29T00:43:51;99964.78;;;12.41;62.74
46291;BME280;32023;44.444;26.006;2024-03-29T00:46:18;99969.78;;;12.34;63.02
46291;BME280;32023;44.444;26.006;2024-03-29T00:48:44;99971.44;;;12.25;63.03
46291;BME280;32023;44.444;26.006;2024-03-29T00:51:13;99962.63;;;12.18;63.57
46291;BME280;32023;44.444;26.006;2024-03-29T00:53:39;99973.41;;;12.15;63.65
46291;BME280;32023;44.444;26.006;2024-03-29T00:56:06;99984.75;;;12.08;64.03
46291;BME280;32023;44.444;26.006;2024-03-29T00:58:32;99987.50;;;12.03;64.31
46291;BME280;32023;44.444;26.006;2024-03-29T01:00:59;99990.25;;;11.98;64.40
46291;BME280;32023;44.444;26.006;2024-03-29T01:03:25;100000.50;;;11.92;64.71
46291;BME280;32023;44.444;26.006;2024-03-29T01:05:54;100005.19;;;11.92;64.82
46291;BME280;32023;44.444;26.006;2024-03-29T01:08:29;99999.94;;;11.90;64.72
46291;BME280;32023;44.444;26.006;2024-03-29T01:10:56;99997.47;;;11.89;65.10
46291;BME280;32023;44.444;26.006;2024-03-29T01:13:22;99995.81;;;11.88;64.83
46291;BME280;32023;44.444;26.006;2024-03-29T01:15:49;99974.28;;;11.80;64.93
46291;BME280;32023;44.444;26.006;2024-03-29T01:18:15;99984.78;;;11.88;65.18
46291;BME280;32023;44.444;26.006;2024-03-29T01:20:42;99977.06;;;11.85;65.12
46291;BME280;32023;44.444;26.006;2024-03-29T01:23:18;99976.50;;;11.88;65.18
46291;BME280;32023;44.444;26.006;2024-03-29T01:25:51;99975.41;;;11.89;64.90
46291;BME280;32023;44.444;26.006;2024-03-29T01:28:18;99981.75;;;11.84;65.38
46291;BME280;32023;44.444;26.006;2024-03-29T01:30:51;99974.84;;;11.82;65.20
46291;BME280;32023;44.444;26.006;2024-03-29T01:33:18;99974.56;;;11.83;65.08
46291;BME280;32023;44.444;26.006;2024-03-29T01:35:53;99980.91;;;11.84;64.88
46291;BME280;32023;44.444;26.006;2024-03-29T01:38:21;99974.84;;;11.87;65.04
46291;BME280;32023;44.444;26.006;2024-03-29T01:40:49;99981.44;;;11.91;64.89
46291;BME280;32023;44.444;26.006;2024-03-29T01:43:15;99981.19;;;11.92;65.03
46291;BME280;32023;44.444;26.006;2024-03-29T01:45:47;99981.44;;;11.96;64.65
46291;BME280;32023;44.444;26.006;2024-03-29T01:48:16;99989.69;;;12.01;64.31
46291;BME280;32023;44.444;26.006;2024-03-29T01:50:43;99996.06;;;12.01;64.51
46291;BME280;32023;44.444;26.006;2024-03-29T01:53:11;99996.31;;;12.05;64.07
46291;BME280;32023;44.444;26.006;2024-03-29T01:55:37;99992.47;;;12.06;63.69
46291;BME280;32023;44.444;26.006;2024-03-29T01:58:04;99997.97;;;12.06;63.70
46291;BME280;32023;44.444;26.006;2024-03-29T02:00:32;99987.78;;;12.06;63.58
46291;BME280;32023;44.444;26.006;2024-03-29T02:03:00;99994.97;;;12.02;64.04
46291;BME280;32023;44.444;26.006;2024-03-29T02:05:32;99997.44;;;11.99;63.94
46291;BME280;32023;44.444;26.006;2024-03-29T02:07:59;99992.50;;;11.96;64.02
46291;BME280;32023;44.444;26.006;2024-03-29T02:10:25;100004.09;;;11.93;64.01
46291;BME280;32023;44.444;26.006;2024-03-29T02:12:52;100006.56;;;11.89;63.76
46291;BME280;32023;44.444;26.006;2024-03-29T02:15:18;100002.44;;;11.92;63.45
46291;BME280;32023;44.444;26.006;2024-03-29T02:17:45;100009.88;;;11.96;63.31
46291;BME280;32023;44.444;26.006;2024-03-29T02:20:11;100007.94;;;12.02;62.80
46291;BME280;32023;44.444;26.006;2024-03-29T02:22:45;100016.78;;;12.04;62.55
46291;BME280;32023;44.444;26.006;2024-03-29T02:25:13;100012.06;;;12.10;61.68
46291;BME280;32023;44.444;26.006;2024-03-29T02:27:40;100008.47;;;12.09;61.62
46291;BME280;32023;44.444;26.006;2024-03-29T02:30:07;100017.31;;;12.11;61.78
46291;BME280;32023;44.444;26.006;2024-03-29T02:32:33;100013.97;;;12.09;61.86
46291;BME280;32023;44.444;26.006;2024-03-29T02:35:00;100009.59;;;12.08;61.76
46291;BME280;32023;44.444;26.006;2024-03-29T02:37:26;100011.78;;;12.06;61.26
46291;BME280;32023;44.444;26.006;2024-03-29T02:39:52;100014.00;;;12.04;60.96
46291;BME280;32023;44.444;26.006;2024-03-29T02:42:19;100014.28;;;12.02;60.95
46291;BME280;32023;44.444;26.006;2024-03-29T02:44:47;100021.47;;;12.03;60.53
46291;BME280;32023;44.444;26.006;2024-03-29T02:47:13;100024.22;;;12.03;60.17
46291;BME280;32023;44.444;26.006;2024-03-29T02:49:39;100025.88;;;12.04;60.09
46291;BME280;32023;44.444;26.006;2024-03-29T02:52:06;100003.53;;;11.96;59.62
46291;BME280;32023;44.444;26.006;2024-03-29T02:54:34;100020.06;;;12.11;59.24
46291;BME280;32023;44.444;26.006;2024-03-29T02:57:09;100012.88;;;12.15;58.80
46291;BME280;32023;44.444;26.006;2024-03-29T02:59:36;100018.94;;;12.17;58.68
46291;BME280;32023;44.444;26.006;2024-03-29T03:02:02;100019.50;;;12.19;58.61
46291;BME280;32023;44.444;26.006;2024-03-29T03:04:29;100023.63;;;12.22;58.29
46291;BME280;32023;44.444;26.006;2024-03-29T03:06:55;100040.47;;;12.25;58.12
46291;BME280;32023;44.444;26.006;2024-03-29T03:09:32;100030.25;;;12.26;58.15
46291;BME280;32023;44.444;26.006;2024-03-29T03:12:19;100033.84;;;12.26;58.31
46291;BME280;32023;44.444;26.006;2024-03-29T03:14:45;100042.13;;;12.26;57.99
46291;BME280;32023;44.444;26.006;2024-03-29T03:17:16;100048.47;;;12.27;57.70
46291;BME280;32023;44.444;26.006;2024-03-29T03:19:42;100053.16;;;12.26;57.94
46291;BME280;32023;44.444;26.006;2024-03-29T03:22:08;100049.84;;;12.24;57.56
46291;BME280;32023;44.444;26.006;2024-03-29T03:24:37;100064.22;;;12.21;57.82
46291;BME280;32023;44.444;26.006;2024-03-29T03:27:04;100060.91;;;12.14;57.66
46291;BME280;32023;44.444;26.006;2024-03-29T03:29:30;100071.94;;;12.14;57.51
46291;BME280;32023;44.444;26.006;2024-03-29T03:31:57;100073.88;;;12.14;57.37
46291;BME280;32023;44.444;26.006;2024-03-29T03:34:23;100073.06;;;12.08;57.83
46291;BME280;32023;44.444;26.006;2024-03-29T03:36:50;100073.91;;;12.03;58.07
46291;BME280;32023;44.444;26.006;2024-03-29T03:39:16;100074.16;;;12.02;58.29
46291;BME280;32023;44.444;26.006;2024-03-29T03:42:00;100078.00;;;12.01;58.01
46291;BME280;32023;44.444;26.006;2024-03-29T03:44:27;100080.22;;;11.99;58.12
46291;BME280;32023;44.444;26.006;2024-03-29T03:46:59;100047.66;;;11.76;58.41
46291;BME280;32023;44.444;26.006;2024-03-29T03:49:26;100081.63;;;11.91;58.61
46291;BME280;32023;44.444;26.006;2024-03-29T03:51:52;100086.59;;;11.84;59.24
46291;BME280;32023;44.444;26.006;2024-03-29T03:54:19;100085.19;;;11.72;59.67
46291;BME280;32023;44.444;26.006;2024-03-29T03:56:45;100087.63;;;11.63;59.91
46291;BME280;32023;44.444;26.006;2024-03-29T03:59:14;100096.16;;;11.56;60.05
46291;BME280;32023;44.444;26.006;2024-03-29T04:01:40;100093.13;;;11.53;60.40
46291;BME280;32023;44.444;26.006;2024-03-29T04:04:15;100094.50;;;11.50;60.14
46291;BME280;32023;44.444;26.006;2024-03-29T04:06:43;100104.94;;;11.48;59.74
46291;BME280;32023;44.444;26.006;2024-03-29T04:09:10;100107.19;;;11.51;60.05
46291;BME280;32023;44.444;26.006;2024-03-29T04:11:37;100119.31;;;11.50;59.72
46291;BME280;32023;44.444;26.006;2024-03-29T04:14:06;100123.75;;;11.51;59.27
46291;BME280;32023;44.444;26.006;2024-03-29T04:16:47;100121.53;;;11.53;58.72
46291;BME280;32023;44.444;26.006;2024-03-29T04:19:13;100127.28;;;11.52;58.76
46291;BME280;32023;44.444;26.006;2024-03-29T04:21:40;100132.28;;;11.55;58.68
46291;BME280;32023;44.444;26.006;2024-03-29T04:24:07;100142.47;;;11.59;58.45
46291;BME280;32023;44.444;26.006;2024-03-29T04:26:41;100135.34;;;11.58;58.04
46291;BME280;32023;44.444;26.006;2024-03-29T04:29:09;100141.09;;;11.52;58.76
46291;BME280;32023;44.444;26.006;2024-03-29T04:31:35;100147.44;;;11.47;59.02
46291;BME280;32023;44.444;26.006;2024-03-29T04:34:02;100153.19;;;11.41;59.01
46291;BME280;32023;44.444;26.006;2024-03-29T04:36:28;100152.06;;;11.37;58.99
46291;BME280;32023;44.444;26.006;2024-03-29T04:39:11;100147.91;;;11.29;59.54
46291;BME280;32023;44.444;26.006;2024-03-29T04:41:37;100152.88;;;11.27;59.78
46291;BME280;32023;44.444;26.006;2024-03-29T04:44:04;100132.13;;;11.09;59.37
46291;BME280;32023;44.444;26.006;2024-03-29T04:46:32;100166.94;;;11.31;59.01
46291;BME280;32023;44.444;26.006;2024-03-29T04:48:59;100171.06;;;11.33;58.64
46291;BME280;32023;44.444;26.006;2024-03-29T04:51:25;100175.50;;;11.34;58.84
46291;BME280;32023;44.444;26.006;2024-03-29T04:53:52;100185.44;;;11.35;58.98
46291;BME280;32023;44.444;26.006;2024-03-29T04:56:18;100186.53;;;11.34;58.59
46291;BME280;32023;44.444;26.006;2024-03-29T04:58:45;100192.00;;;11.29;58.83
46291;BME280;32023;44.444;26.006;2024-03-29T05:01:12;100184.03;;;11.28;59.65
46291;BME280;32023;44.444;26.006;2024-03-29T05:03:39;100197.75;;;11.23;60.04
46291;BME280;32023;44.444;26.006;2024-03-29T05:06:05;100203.28;;;11.23;59.71
46291;BME280;32023;44.444;26.006;2024-03-29T05:08:32;100201.34;;;11.23;59.89
46291;BME280;32023;44.444;26.006;2024-03-29T05:11:05;100206.91;;;11.28;60.10
46291;BME280;32023;44.444;26.006;2024-03-29T05:13:33;100211.88;;;11.31;58.95
46291;BME280;32023;44.444;26.006;2024-03-29T05:16:00;100208.91;;;11.43;59.65
46291;BME280;32023;44.444;26.006;2024-03-29T05:18:27;100215.00;;;11.50;59.39
46291;BME280;32023;44.444;26.006;2024-03-29T05:20:53;100220.28;;;11.62;58.82
46291;BME280;32023;44.444;26.006;2024-03-29T05:23:20;100224.22;;;11.76;59.08
46291;BME280;32023;44.444;26.006;2024-03-29T05:25:49;100229.25;;;11.89;57.57
46291;BME280;32023;44.444;26.006;2024-03-29T05:28:19;100227.34;;;12.04;57.52
46291;BME280;32023;44.444;26.006;2024-03-29T05:30:52;100230.13;;;12.20;57.11
46291;BME280;32023;44.444;26.006;2024-03-29T05:33:25;100232.34;;;12.28;56.34
46291;BME280;32023;44.444;26.006;2024-03-29T05:35:52;100243.66;;;12.36;56.54
46291;BME280;32023;44.444;26.006;2024-03-29T05:38:18;100240.38;;;12.44;56.52
46291;BME280;32023;44.444;26.006;2024-03-29T05:40:45;100240.66;;;12.53;56.87
46291;BME280;32023;44.444;26.006;2024-03-29T05:43:19;100245.06;;;12.54;56.61
46291;BME280;32023;44.444;26.006;2024-03-29T05:45:45;100242.31;;;12.59;56.79
46291;BME280;32023;44.444;26.006;2024-03-29T05:48:12;100211.66;;;12.45;56.91
46291;BME280;32023;44.444;26.006;2024-03-29T05:50:44;100260.28;;;12.72;56.87
46291;BME280;32023;44.444;26.006;2024-03-29T05:53:11;100258.06;;;12.79;56.87
46291;BME280;32023;44.444;26.006;2024-03-29T05:55:59;100249.47;;;12.85;56.65
46291;BME280;32023;44.444;26.006;2024-03-29T05:58:26;100255.56;;;12.97;56.25
46291;BME280;32023;44.444;26.006;2024-03-29T06:00:52;100253.06;;;13.06;56.16
46291;BME280;32023;44.444;26.006;2024-03-29T06:03:20;100262.47;;;13.15;55.82
46291;BME280;32023;44.444;26.006;2024-03-29T06:05:53;100260.81;;;13.24;55.58
46291;BME280;32023;44.444;26.006;2024-03-29T06:08:27;100242.50;;;13.38;54.91
46291;BME280;32023;44.444;26.006;2024-03-29T06:10:54;100255.72;;;13.62;53.86
46291;BME280;32023;44.444;26.006;2024-03-29T06:13:21;100256.72;;;13.86;53.12
46291;BME280;32023;44.444;26.006;2024-03-29T06:16:06;100267.66;;;14.11;52.74
46291;BME280;32023;44.444;26.006;2024-03-29T06:18:51;100251.78;;;14.27;51.28
46291;BME280;32023;44.444;26.006;2024-03-29T06:21:17;100252.84;;;14.36;51.74
46291;BME280;32023;44.444;26.006;2024-03-29T06:23:44;100256.59;;;14.55;51.29
46291;BME280;32023;44.444;26.006;2024-03-29T06:26:10;100262.81;;;14.76;50.58
46291;BME280;32023;44.444;26.006;2024-03-29T06:28:40;100256.19;;;15.01;50.09
46291;BME280;32023;44.444;26.006;2024-03-29T06:31:06;100264.38;;;15.16;49.63
46291;BME280;32023;44.444;26.006;2024-03-29T06:33:33;100257.84;;;15.30;49.32
46291;BME280;32023;44.444;26.006;2024-03-29T06:35:59;100252.69;;;15.48;47.95
46291;BME280;32023;44.444;26.006;2024-03-29T06:38:26;100252.44;;;15.68;47.25
46291;BME280;32023;44.444;26.006;2024-03-29T06:40:59;100255.03;;;15.83;46.75
46291;BME280;32023;44.444;26.006;2024-03-29T06:43:26;100261.06;;;15.90;46.71
46291;BME280;32023;44.444;26.006;2024-03-29T06:45:52;100267.56;;;16.04;46.12
46291;BME280;32023;44.444;26.006;2024-03-29T06:48:22;100278.50;;;16.14;46.75
46291;BME280;32023;44.444;26.006;2024-03-29T06:50:49;100269.75;;;16.26;45.64
46291;BME280;32023;44.444;26.006;2024-03-29T06:53:16;100273.50;;;16.35;45.61
46291;BME280;32023;44.444;26.006;2024-03-29T06:56:18;100261.63;;;16.48;45.23
46291;BME280;32023;44.444;26.006;2024-03-29T06:58:46;100265.97;;;16.54;45.23
46291;BME280;32023;44.444;26.006;2024-03-29T07:01:13;100265.03;;;16.64;45.13
46291;BME280;32023;44.444;26.006;2024-03-29T07:03:40;100262.00;;;16.79;44.51
46291;BME280;32023;44.444;26.006;2024-03-29T07:06:09;100263.47;;;16.90;44.13
46291;BME280;32023;44.444;26.006;2024-03-29T07:08:36;100271.50;;;17.10;44.01
46291;BME280;32023;44.444;26.006;2024-03-29T07:11:11;100259.53;;;17.23;43.47
46291;BME280;32023;44.444;26.006;2024-03-29T07:13:37;100256.19;;;17.40;43.88
46291;BME280;32023;44.444;26.006;2024-03-29T07:16:27;100265.31;;;17.59;43.35
46291;BME280;32023;44.444;26.006;2024-03-29T07:19:02;100267.78;;;17.74;43.04
46291;BME280;32023;44.444;26.006;2024-03-29T07:21:29;100265.09;;;17.83;43.12
46291;BME280;32023;44.444;26.006;2024-03-29T07:23:58;100284.41;;;17.93;43.10
46291;BME280;32023;44.444;26.006;2024-03-29T07:26:40;100290.13;;;18.10;42.65
46291;BME280;32023;44.444;26.006;2024-03-29T07:29:13;100291.06;;;18.19;41.88
46291;BME280;32023;44.444;26.006;2024-03-29T07:31:40;100297.03;;;18.54;41.29
46291;BME280;32023;44.444;26.006;2024-03-29T07:34:06;100303.75;;;18.75;40.43
46291;BME280;32023;44.444;26.006;2024-03-29T07:36:33;100307.69;;;18.74;39.25
46291;BME280;32023;44.444;26.006;2024-03-29T07:39:06;100302.81;;;18.80;39.13
46291;BME280;32023;44.444;26.006;2024-03-29T07:41:38;100313.34;;;19.05;39.11
46291;BME280;32023;44.444;26.006;2024-03-29T07:44:04;100297.78;;;19.35;39.80
46291;BME280;32023;44.444;26.006;2024-03-29T07:46:36;100309.22;;;19.78;38.96
46291;BME280;32023;44.444;26.006;2024-03-29T07:49:06;100303.09;;;20.15;38.03
46291;BME280;32023;44.444;26.006;2024-03-29T07:51:36;100299.25;;;20.50;37.43
46291;BME280;32023;44.444;26.006;2024-03-29T07:54:24;100294.16;;;20.78;36.48
46291;BME280;32023;44.444;26.006;2024-03-29T07:56:51;100289.53;;;20.99;36.33
46291;BME280;32023;44.444;26.006;2024-03-29T07:59:18;100299.09;;;21.16;36.40
46291;BME280;32023;44.444;26.006;2024-03-29T08:01:49;100276.16;;;21.31;35.45
46291;BME280;32023;44.444;26.006;2024-03-29T08:04:15;100291.75;;;21.49;35.65
46291;BME280;32023;44.444;26.006;2024-03-29T08:06:42;100297.34;;;21.49;34.71
46291;BME280;32023;44.444;26.006;2024-03-29T08:09:08;100286.97;;;21.49;34.94
46291;BME280;32023;44.444;26.006;2024-03-29T08:11:36;100291.22;;;21.64;35.44
46291;BME280;32023;44.444;26.006;2024-03-29T08:14:05;100291.59;;;22.00;35.36
46291;BME280;32023;44.444;26.006;2024-03-29T08:17:01;100212.78;;;21.93;34.60
46291;BME280;32023;44.444;26.006;2024-03-29T08:19:31;100270.06;;;22.42;34.38
46291;BME280;32023;44.444;26.006;2024-03-29T08:21:57;100277.03;;;22.57;34.08
46291;BME280;32023;44.444;26.006;2024-03-29T08:25:10;100272.97;;;22.75;33.36
46291;BME280;32023;44.444;26.006;2024-03-29T08:27:50;100256.72;;;22.81;33.35
46291;BME280;32023;44.444;26.006;2024-03-29T08:30:22;100259.69;;;22.96;33.08
46291;BME280;32023;44.444;26.006;2024-03-29T08:32:56;100264.53;;;22.96;33.14
46291;BME280;32023;44.444;26.006;2024-03-29T08:35:32;100274.50;;;23.06;32.55
46291;BME280;32023;44.444;26.006;2024-03-29T08:38:00;100273.03;;;23.20;32.55
46291;BME280;32023;44.444;26.006;2024-03-29T08:40:40;100270.28;;;23.12;32.29
46291;BME280;32023;44.444;26.006;2024-03-29T08:43:09;100273.53;;;23.34;32.41
46291;BME280;32023;44.444;26.006;2024-03-29T08:45:52;100273.81;;;23.41;31.80
46291;BME280;32023;44.444;26.006;2024-03-29T08:51:11;100274.13;;;23.40;32.00
46291;BME280;32023;44.444;26.006;2024-03-29T08:53:37;100266.03;;;23.71;31.69
46291;BME280;32023;44.444;26.006;2024-03-29T08:56:31;100268.84;;;23.95;31.03
46291;BME280;32023;44.444;26.006;2024-03-29T08:59:03;100265.31;;;23.98;30.85
46291;BME280;32023;44.444;26.006;2024-03-29T09:01:54;100266.88;;;24.20;30.52
46291;BME280;32023;44.444;26.006;2024-03-29T09:04:29;100277.03;;;23.88;30.93
46291;BME280;32023;44.444;26.006;2024-03-29T09:07:00;100262.75;;;23.93;31.09
46291;BME280;32023;44.444;26.006;2024-03-29T09:09:28;100278.22;;;24.12;30.76
46291;BME280;32023;44.444;26.006;2024-03-29T09:11:57;100268.50;;;24.21;30.82
46291;BME280;32023;44.444;26.006;2024-03-29T09:14:27;100266.72;;;24.41;30.74
46291;BME280;32023;44.444;26.006;2024-03-29T09:16:59;100217.88;;;24.61;30.46
46291;BME280;32023;44.444;26.006;2024-03-29T09:19:28;100249.72;;;24.89;30.08
46291;BME280;32023;44.444;26.006;2024-03-29T09:21:58;100266.63;;;24.89;29.55
46291;BME280;32023;44.444;26.006;2024-03-29T09:24:25;100258.44;;;24.84;29.79
46291;BME280;32023;44.444;26.006;2024-03-29T09:26:53;100269.38;;;25.29;29.51
46291;BME280;32023;44.444;26.006;2024-03-29T09:29:20;100254.06;;;25.58;29.29
46291;BME280;32023;44.444;26.006;2024-03-29T09:31:49;100246.59;;;25.81;28.47
46291;BME280;32023;44.444;26.006;2024-03-29T09:34:16;100241.97;;;26.20;27.79
46291;BME280;32023;44.444;26.006;2024-03-29T09:36:47;100243.19;;;26.39;26.95
46291;BME280;32023;44.444;26.006;2024-03-29T09:39:16;100241.84;;;26.17;27.12
46291;BME280;32023;44.444;26.006;2024-03-29T09:41:45;100239.00;;;26.32;27.23
46291;BME280;32023;44.444;26.006;2024-03-29T09:44:14;100243.75;;;26.13;26.66
46291;BME280;32023;44.444;26.006;2024-03-29T09:46:42;100236.72;;;26.38;26.58
46291;BME280;32023;44.444;26.006;2024-03-29T09:49:12;100232.88;;;26.46;26.35
46291;BME280;32023;44.444;26.006;2024-03-29T09:51:42;100231.75;;;27.08;25.78
46291;BME280;32023;44.444;26.006;2024-03-29T09:54:12;100240.06;;;27.40;24.80
46291;BME280;32023;44.444;26.006;2024-03-29T09:56:41;100235.75;;;27.04;25.26
46291;BME280;32023;44.444;26.006;2024-03-29T09:59:08;100226.03;;;27.05;25.79
46291;BME280;32023;44.444;26.006;2024-03-29T10:01:35;100226.53;;;27.71;24.78
46291;BME280;32023;44.444;26.006;2024-03-29T10:04:02;100232.63;;;28.52;23.63
46291;BME280;32023;44.444;26.006;2024-03-29T10:06:45;100230.78;;;28.93;23.09
46291;BME280;32023;44.444;26.006;2024-03-29T10:09:19;100221.84;;;29.65;22.16
46291;BME280;32023;44.444;26.006;2024-03-29T10:11:47;100227.88;;;30.62;21.49
46291;BME280;32023;44.444;26.006;2024-03-29T10:14:18;100215.91;;;31.08;20.07
46291;BME280;32023;44.444;26.006;2024-03-29T10:17:00;100228.97;;;31.26;20.22
46291;BME280;32023;44.444;26.006;2024-03-29T10:19:26;100238.81;;;32.03;19.90
46291;BME280;32023;44.444;26.006;2024-03-29T10:21:53;100237.06;;;33.60;18.93
46291;BME280;32023;44.444;26.006;2024-03-29T10:24:42;100224.41;;;36.01;16.19
46291;BME280;32023;44.444;26.006;2024-03-29T10:27:17;100209.81;;;35.92;16.22
46291;BME280;32023;44.444;26.006;2024-03-29T10:29:43;100220.28;;;36.49;16.06
46291;BME280;32023;44.444;26.006;2024-03-29T10:32:12;100219.34;;;36.55;15.68
46291;BME280;32023;44.444;26.006;2024-03-29T10:34:43;100221.63;;;36.64;15.18
46291;BME280;32023;44.444;26.006;2024-03-29T10:37:09;100209.81;;;35.92;15.88
46291;BME280;32023;44.444;26.006;2024-03-29T10:39:43;100212.72;;;35.08;16.98
46291;BME280;32023;44.444;26.006;2024-03-29T10:42:12;100227.91;;;34.71;16.93
46291;BME280;32023;44.444;26.006;2024-03-29T10:44:46;100209.22;;;34.97;16.65
46291;BME280;32023;44.444;26.006;2024-03-29T10:47:18;100212.69;;;36.39;15.80
46291;BME280;32023;44.444;26.006;2024-03-29T10:49:50;100223.94;;;37.48;15.03
46291;BME280;32023;44.444;26.006;2024-03-29T10:52:22;100222.25;;;38.31;14.55
46291;BME280;32023;44.444;26.006;2024-03-29T10:55:30;100218.72;;;37.07;15.28
46291;BME280;32023;44.444;26.006;2024-03-29T10:58:01;100217.00;;;37.09;15.25
46291;BME280;32023;44.444;26.006;2024-03-29T11:00:33;100218.88;;;37.72;14.79
46291;BME280;32023;44.444;26.006;2024-03-29T11:09:10;100229.94;;;38.95;13.08
46291;BME280;32023;44.444;26.006;2024-03-29T11:11:42;100229.41;;;38.11;13.61
46291;BME280;32023;44.444;26.006;2024-03-29T11:14:16;100217.84;;;38.27;13.33
46291;BME280;32023;44.444;26.006;2024-03-29T11:17:09;100217.41;;;38.73;13.50
46291;BME280;32023;44.444;26.006;2024-03-29T11:19:38;100221.25;;;39.62;12.89
46291;BME280;32023;44.444;26.006;2024-03-29T11:22:05;100221.06;;;39.94;12.26
46291;BME280;32023;44.444;26.006;2024-03-29T11:24:40;100217.59;;;40.00;12.14
46291;BME280;32023;44.444;26.006;2024-03-29T11:27:09;100228.91;;;38.73;12.53
46291;BME280;32023;44.444;26.006;2024-03-29T11:29:36;100238.38;;;36.46;14.33
46291;BME280;32023;44.444;26.006;2024-03-29T11:32:08;100230.28;;;36.41;13.79
46291;BME280;32023;44.444;26.006;2024-03-29T11:34:35;100225.34;;;36.84;14.08
46291;BME280;32023;44.444;26.006;2024-03-29T11:37:11;100224.66;;;36.34;14.31
46291;BME280;32023;44.444;26.006;2024-03-29T11:39:37;100229.72;;;36.26;14.46
46291;BME280;32023;44.444;26.006;2024-03-29T11:42:05;100226.78;;;36.06;13.85
46291;BME280;32023;44.444;26.006;2024-03-29T11:44:31;100228.50;;;35.77;13.88
46291;BME280;32023;44.444;26.006;2024-03-29T11:46:59;100212.72;;;35.39;14.52
46291;BME280;32023;44.444;26.006;2024-03-29T11:49:26;100221.53;;;35.78;14.75
46291;BME280;32023;44.444;26.006;2024-03-29T11:52:05;100222.53;;;34.40;15.08
46291;BME280;32023;44.444;26.006;2024-03-29T11:54:47;100216.84;;;33.33;15.95
46291;BME280;32023;44.444;26.006;2024-03-29T11:57:15;100222.09;;;33.42;16.35
46291;BME280;32023;44.444;26.006;2024-03-29T12:00:09;100216.94;;;33.22;16.59
46291;BME280;32023;44.444;26.006;2024-03-29T12:02:36;100230.38;;;33.25;16.47
46291;BME280;32023;44.444;26.006;2024-03-29T12:05:07;100233.53;;;32.12;17.35
46291;BME280;32023;44.444;26.006;2024-03-29T12:07:34;100229.03;;;32.43;17.43
46291;BME280;32023;44.444;26.006;2024-03-29T12:10:01;100230.66;;;31.77;17.97
46291;BME280;32023;44.444;26.006;2024-03-29T12:12:28;100238.41;;;31.73;19.03
46291;BME280;32023;44.444;26.006;2024-03-29T12:14:57;100236.22;;;31.13;18.81
46291;BME280;32023;44.444;26.006;2024-03-29T12:17:29;100242.19;;;30.83;18.97
46291;BME280;32023;44.444;26.006;2024-03-29T12:20:00;100234.25;;;30.45;19.22
46291;BME280;32023;44.444;26.006;2024-03-29T12:22:31;100236.59;;;29.85;19.80
46291;BME280;32023;44.444;26.006;2024-03-29T12:25:14;100239.88;;;29.43;20.22
46291;BME280;32023;44.444;26.006;2024-03-29T12:27:43;100230.97;;;29.07;20.63
46291;BME280;32023;44.444;26.006;2024-03-29T12:30:13;100236.44;;;28.93;20.85
46291;BME280;32023;44.444;26.006;2024-03-29T12:32:43;100229.34;;;28.47;21.03
46291;BME280;32023;44.444;26.006;2024-03-29T12:35:15;100224.44;;;28.44;21.89
46291;BME280;32023;44.444;26.006;2024-03-29T12:40:49;100217.13;;;28.69;21.57
46291;BME280;32023;44.444;26.006;2024-03-29T12:43:22;100212.56;;;28.64;21.30
46291;BME280;32023;44.444;26.006;2024-03-29T12:45:52;100228.94;;;27.96;21.73
46291;BME280;32023;44.444;26.006;2024-03-29T12:48:23;100227.97;;;28.11;22.03
46291;BME280;32023;44.444;26.006;2024-03-29T12:50:49;100225.41;;;28.02;21.62
46291;BME280;32023;44.444;26.006;2024-03-29T12:53:18;100240.94;;;28.12;21.98
46291;BME280;32023;44.444;26.006;2024-03-29T12:55:46;100226.63;;;27.79;21.88
46291;BME280;32023;44.444;26.006;2024-03-29T12:58:17;100227.91;;;27.58;22.15
46291;BME280;32023;44.444;26.006;2024-03-29T13:00:51;100240.34;;;27.54;22.23
46291;BME280;32023;44.444;26.006;2024-03-29T13:03:18;100240.84;;;27.59;22.36
46291;BME280;32023;44.444;26.006;2024-03-29T13:05:45;100235.25;;;27.63;22.57
46291;BME280;32023;44.444;26.006;2024-03-29T13:08:15;100242.69;;;27.71;22.61